Portada
METAR-TAF:

METAR-TAF

Aeropuertos :

Aeropuerto Internacional de Shiraz

Shiraz, Irán

latitud: 29-32N, longitud: 052-35E, altitud: 1486 m

Observación

El informe se hizo hace 33 minutos, a las 23:00 UTC
Viento calma
Temperatura -1°C
Humedad 69%
Presión 1021 hPa
Visibilidad 10 km o más
sin nubes por debajo de 1500 m y sin presencia de cumulonimbus.

METAR: OISS 242300Z 00000KT CAVOK M01/M06 Q1021 A3015

Hora: 03:03 (23:33 UTC)

Pronóstico

El informe se hizo hace 5 horas y 53 minutos, a las 17:40 UTC
Pronóstico válido del 24 a las 18 UTC al 25 a las 24 UTC
Viento 6 kt del oeste-noroeste
Visibilidad: 8000 m
Evolucionando progresivamente
del 25 a las 21 UTC al 25 a las 23 UTC
Escasas nubes a una altura de 3500 ft, Cumulonimbus.
Nubes dispersas a una altura de 4000 ft
Cielo cubierto a una altura de 9000 ft

TAF: OISS 241740Z 2418/2524 30006KT 8000 NSC BECMG 2521/2523 FEW035CB SCT040 OVC090

Observaciones y pronósticos meteorológicos de más de 4000 aeropuertos (mensajes METAR y TAF).

Los puntos amarillos y rojos representan las estaciones disponibles.

Ponga el ratón en el punto deseado para ver el nombre de la estación.

Haga clic para ver las observaciones y los pronósticos meteorológicos.

Para cambiar el mapa : haga clic en los botones verdes con una cruz de color negro para hacer un zoom, en el botón verde con un guión para alejar o en las flechas verdes para mapas adyacentes.


METAR-TAF: